| time (UTC) | temp F | wind direction | speed MPH | gust MPH | rain 1hr in | rain 24hr in | rain mn in | humidity % | barometer mb |
| 20260831233018 | 98 | 197 | 6.0 | 10.0 | 0.00 | 0.00 | 0.00 | 34 | 1008.6 |
| 20260831231516 | 99 | 135 | 9.0 | 15.0 | 0.00 | 0.00 | 0.00 | 34 | 1008.5 |
| 20260831230022 | 99 | 187 | 0.0 | 14.0 | 0.00 | 0.00 | 0.00 | 33 | 1008.5 |
| 20260831224513 | 100 | 153 | 10.0 | 16.0 | 0.00 | 0.00 | 0.00 | 32 | 1008.6 |
| 20260831223013 | 100 | 165 | 7.0 | 13.0 | 0.00 | 0.00 | 0.00 | 33 | 1008.6 |
| 20260831221514 | 100 | 157 | 7.0 | 14.0 | 0.00 | 0.00 | 0.00 | 31 | 1008.7 |
| 20260831220011 | 100 | 196 | 3.0 | 12.0 | 0.00 | 0.00 | 0.00 | 32 | 1008.8 |
| 20260831214509 | 100 | 224 | 7.0 | 14.0 | 0.00 | 0.00 | 0.00 | 32 | 1008.9 |
| 20260831213008 | 100 | 176 | 7.0 | 12.0 | 0.00 | 0.00 | 0.00 | 32 | 1008.8 |
| 20260831211507 | 101 | 163 | 2.0 | 13.0 | 0.00 | 0.00 | 0.00 | 31 | 1009.0 |
| 20260831210006 | 100 | 252 | 8.0 | 15.0 | 0.00 | 0.00 | 0.00 | 31 | 1009.1 |
| 20260831204505 | 100 | 149 | 7.0 | 14.0 | 0.00 | 0.00 | 0.00 | 31 | 1009.2 |
| 20260831203004 | 100 | 128 | 6.0 | 11.0 | 0.00 | 0.00 | 0.00 | 30 | 1009.3 |
| 20260831201506 | 100 | 154 | 10.0 | 14.0 | 0.00 | 0.00 | 0.00 | 31 | 1009.6 |
| 20260831200013 | 100 | 134 | 12.0 | 18.0 | 0.00 | 0.00 | 0.00 | 31 | 1010.0 |
| 20260831194502 | 100 | 151 | 10.0 | 13.0 | 0.00 | 0.00 | 0.00 | 31 | 1010.1 |
| 20260831193001 | 100 | 146 | 7.0 | 14.0 | 0.00 | 0.00 | 0.00 | 31 | 1010.1 |
| 20260831191601 | 100 | 128 | 8.0 | 12.0 | 0.00 | 0.00 | 0.00 | 31 | 1010.2 |
| 20260831190118 | 100 | 106 | 3.0 | 14.0 | 0.00 | 0.00 | 0.00 | 30 | 1010.4 |
| 20260831184606 | 100 | 157 | 6.0 | 18.0 | 0.00 | 0.00 | 0.00 | 33 | 1010.2 |
| 20260831183105 | 100 | 178 | 7.0 | 13.0 | 0.00 | 0.00 | 0.00 | 34 | 1010.5 |
| 20260831181602 | 100 | 216 | 5.0 | 12.0 | 0.00 | 0.00 | 0.00 | 32 | 1010.7 |
| 20260831180055 | 99 | 164 | 8.0 | 14.0 | 0.00 | 0.00 | 0.00 | 34 | 1010.9 |
| 20260831174551 | 98 | 206 | 8.0 | 14.0 | 0.00 | 0.00 | 0.00 | 36 | 1011.1 |
| 20260831173049 | 98 | 224 | 7.0 | 14.0 | 0.00 | 0.00 | 0.00 | 37 | 1011.3 |
| 20260831171548 | 97 | 187 | 8.0 | 19.0 | 0.00 | 0.00 | 0.00 | 39 | 1011.5 |
| 20260831170047 | 96 | 199 | 2.0 | 12.0 | 0.00 | 0.00 | 0.00 | 41 | 1011.5 |
| 20260831164551 | 95 | 241 | 7.0 | 14.0 | 0.00 | 0.00 | 0.00 | 41 | 1011.5 |
| 20260831163040 | 95 | 214 | 1.0 | 12.0 | 0.00 | 0.00 | 0.00 | 44 | 1011.6 |
| 20260831161539 | 94 | 212 | 9.0 | 14.0 | 0.00 | 0.00 | 0.00 | 43 | 1011.7 |
| 20260831160036 | 93 | 214 | 7.0 | 14.0 | 0.00 | 0.00 | 0.00 | 44 | 1011.7 |
| 20260831154533 | 92 | 211 | 7.0 | 12.0 | 0.00 | 0.00 | 0.00 | 45 | 1011.8 |
| 20260831153029 | 91 | 189 | 10.0 | 17.0 | 0.00 | 0.00 | 0.00 | 47 | 1011.7 |
| 20260831151524 | 89 | 195 | 7.0 | 15.0 | 0.00 | 0.00 | 0.00 | 49 | 1011.8 |
| 20260831150020 | 88 | 171 | 9.0 | 13.0 | 0.00 | 0.00 | 0.00 | 51 | 1011.8 |
| 20260831144515 | 86 | 141 | 1.0 | 10.0 | 0.00 | 0.00 | 0.00 | 54 | 1011.8 |
| 20260831143028 | 84 | 165 | 4.0 | 11.0 | 0.00 | 0.00 | 0.00 | 57 | 1012.0 |
| 20260831141535 | 82 | 146 | 4.0 | 8.0 | 0.00 | 0.00 | 0.00 | 59 | 1012.0 |
| 20260831140031 | 81 | 138 | 0.0 | 1.0 | 0.00 | 0.00 | 0.00 | 62 | 1012.3 |
| 20260831134511 | 79 | 131 | 0.0 | 7.0 | 0.00 | 0.00 | 0.00 | 63 | 1012.3 |
| 20260831133010 | 78 | 143 | 0.0 | 0.0 | 0.00 | 0.00 | 0.00 | 65 | 1012.2 |
| 20260831131511 | 77 | 154 | 0.0 | 0.0 | 0.00 | 0.00 | 0.00 | 66 | 1012.1 |
| 20260831130007 | 76 | 152 | 0.0 | 0.0 | 0.00 | 0.00 | 0.00 | 67 | 1012.0 |
| 20260831124505 | 76 | 145 | 0.0 | 0.0 | 0.00 | 0.00 | 0.00 | 67 | 1011.8 |
| 20260831123004 | 75 | 143 | 0.0 | 0.0 | 0.00 | 0.00 | 0.00 | 68 | 1011.7 |
| 20260831121503 | 75 | 153 | 0.0 | 0.0 | 0.00 | 0.00 | 0.00 | 68 | 1011.6 |
| 20260831120000 | 75 | 147 | 0.0 | 0.0 | 0.00 | 0.00 | 0.00 | 68 | 1011.4 |
| 20260831114557 | 75 | 147 | 0.0 | 0.0 | 0.00 | 0.00 | 0.00 | 67 | 1011.2 |
| 20260831113055 | 76 | 147 | 0.0 | 0.0 | 0.00 | 0.00 | 0.00 | 66 | 1011.1 |
| 20260831111558 | 76 | 147 | 0.0 | 0.0 | 0.00 | 0.00 | 0.00 | 65 | 1011.1 |
| 20260831110053 | 77 | 145 | 0.0 | 0.0 | 0.00 | 0.00 | 0.00 | 65 | 1010.8 |
| 20260831104547 | 78 | 141 | 0.0 | 0.0 | 0.00 | 0.00 | 0.00 | 63 | 1010.8 |
| 20260831103043 | 78 | 137 | 0.0 | 0.0 | 0.00 | 0.00 | 0.00 | 62 | 1010.6 |
| 20260831101550 | 79 | 159 | 0.0 | 0.0 | 0.00 | 0.00 | 0.00 | 61 | 1010.3 |
| 20260831100041 | 79 | 136 | 0.0 | 0.0 | 0.00 | 0.00 | 0.00 | 61 | 1010.1 |
| 20260831094533 | 79 | 151 | 0.0 | 0.0 | 0.00 | 0.00 | 0.00 | 60 | 1009.7 |
| 20260831093030 | 79 | 145 | 0.0 | 0.0 | 0.00 | 0.00 | 0.00 | 60 | 1009.7 |
| 20260831091528 | 79 | 147 | 0.0 | 0.0 | 0.00 | 0.00 | 0.00 | 59 | 1009.7 |
| 20260831090027 | 80 | 149 | 0.0 | 0.0 | 0.00 | 0.00 | 0.00 | 59 | 1009.6 |
| 20260831084525 | 80 | 152 | 0.0 | 0.0 | 0.00 | 0.00 | 0.00 | 57 | 1009.6 |
| 20260831083020 | 81 | 143 | 0.0 | 0.0 | 0.00 | 0.00 | 0.00 | 56 | 1009.4 |
| 20260831081517 | 83 | 185 | 0.0 | 0.0 | 0.00 | 0.00 | 0.00 | 53 | 1009.6 |
| 20260831080014 | 84 | 216 | 0.0 | 11.0 | 0.00 | 0.00 | 0.00 | 51 | 1009.4 |
| 20260831074513 | 84 | 180 | 0.0 | 8.0 | 0.00 | 0.00 | 0.00 | 51 | 1009.4 |
| 20260831073022 | 85 | 166 | 0.0 | 9.0 | 0.00 | 0.00 | 0.00 | 51 | 1009.3 |
| 20260831071509 | 85 | 173 | 7.0 | 16.0 | 0.00 | 0.00 | 0.00 | 50 | 1009.5 |
| 20260831070016 | 86 | 145 | 4.0 | 14.0 | 0.00 | 0.00 | 0.00 | 49 | 1009.5 |
| 20260831064507 | 85 | 159 | 6.0 | 14.0 | 0.00 | 0.00 | 0.00 | 50 | 1009.4 |
| 20260831063012 | 85 | 168 | 0.0 | 7.0 | 0.00 | 0.00 | 0.00 | 51 | 1009.4 |
| 20260831061503 | 86 | 208 | 1.0 | 11.0 | 0.00 | 0.00 | 0.00 | 50 | 1009.2 |
| 20260831060000 | 86 | 152 | 8.0 | 13.0 | 0.00 | 0.00 | 0.00 | 49 | 1009.2 |
| 20260831054559 | 87 | 166 | 7.0 | 16.0 | 0.00 | 0.00 | 0.00 | 48 | 1009.0 |
| 20260831053057 | 87 | 154 | 10.0 | 16.0 | 0.00 | 0.00 | 0.00 | 48 | 1008.9 |
| 20260831051605 | 87 | 184 | 5.0 | 13.0 | 0.00 | 0.00 | 0.00 | 49 | 1008.8 |
| 20260831050049 | 86 | 215 | 5.0 | 12.0 | 0.00 | 0.00 | 0.00 | 49 | 1008.7 |
| 20260831044549 | 86 | 152 | 5.0 | 10.0 | 0.00 | 0.00 | 0.00 | 49 | 1008.7 |
| 20260831043049 | 86 | 151 | 2.0 | 9.0 | 0.00 | 0.00 | 0.00 | 48 | 1008.8 |
| 20260831041548 | 87 | 163 | 4.0 | 10.0 | 0.00 | 0.00 | 0.00 | 48 | 1008.7 |
| 20260831040047 | 87 | 145 | 4.0 | 9.0 | 0.00 | 0.00 | 0.00 | 47 | 1008.7 |
| 20260831034546 | 87 | 132 | 3.0 | 9.0 | 0.00 | 0.00 | 0.00 | 46 | 1008.6 |
| 20260831033046 | 87 | 134 | 0.0 | 0.0 | 0.00 | 0.00 | 0.00 | 45 | 1008.5 |
| 20260831031547 | 88 | 142 | 0.0 | 2.0 | 0.00 | 0.00 | 0.00 | 45 | 1008.4 |
| 20260831030104 | 88 | 157 | 0.0 | 1.0 | 0.00 | 0.00 | 0.00 | 45 | 1008.2 |
| 20260831024609 | 88 | 153 | 0.0 | 0.0 | 0.00 | 0.00 | 0.00 | 44 | 1008.0 |
| 20260831023044 | 88 | 145 | 0.0 | 0.0 | 0.00 | 0.00 | 0.00 | 43 | 1007.9 |
| 20260831021542 | 90 | 148 | 0.0 | 0.0 | 0.00 | 0.00 | 0.00 | 42 | 1007.7 |
| 20260831020043 | 90 | 149 | 0.0 | 0.0 | 0.00 | 0.00 | 0.00 | 42 | 1007.5 |
| 20260831014542 | 90 | 150 | 0.0 | 0.0 | 0.00 | 0.00 | 0.00 | 42 | 1007.2 |
| 20260831013046 | 92 | 137 | 0.0 | 7.0 | 0.00 | 0.00 | 0.00 | 40 | 1007.2 |
| 20260831011541 | 92 | 141 | 0.0 | 5.0 | 0.00 | 0.00 | 0.00 | 40 | 1007.0 |
| 20260831010041 | 94 | 151 | 1.0 | 9.0 | 0.00 | 0.00 | 0.00 | 38 | 1006.9 |
| 20260831004539 | 95 | 142 | 2.0 | 10.0 | 0.00 | 0.00 | 0.00 | 38 | 1006.9 |
| 20260831003039 | 96 | 147 | 0.0 | 10.0 | 0.00 | 0.00 | 0.00 | 37 | 1006.8 |
| 20260831001538 | 97 | 151 | 4.0 | 12.0 | 0.00 | 0.00 | 0.00 | 35 | 1006.8 |
| 20260831000038 | 98 | 171 | 6.0 | 15.0 | 0.00 | 0.00 | 0.00 | 33 | 1006.8 |
| 20260830234539 | 99 | 162 | 8.0 | 13.0 | 0.00 | 0.00 | 0.00 | 32 | 1006.7 |